createdAt,value
2023-01-28T00:55:22.034Z,51.291195
2023-01-28T00:56:22.118Z,51.291229
2023-01-28T00:57:21.975Z,51.291214
2023-01-28T00:58:21.947Z,51.291306
2023-01-28T00:59:21.943Z,51.291222
2023-01-28T01:00:21.924Z,51.291267
2023-01-28T01:01:21.974Z,51.291229
2023-01-28T01:02:21.966Z,51.291218
2023-01-28T01:03:21.889Z,51.291225
2023-01-28T01:04:21.885Z,51.291298
2023-01-28T01:05:21.875Z,51.291286
2023-01-28T01:06:21.888Z,51.291206
2023-01-28T01:07:21.876Z,51.291191
2023-01-28T01:08:21.819Z,51.291302
2023-01-28T01:09:21.827Z,51.291283
2023-01-28T01:10:21.807Z,51.291271
2023-01-28T01:11:21.848Z,51.291157
2023-01-28T01:12:21.798Z,51.291340
2023-01-28T01:13:21.816Z,51.291283
2023-01-28T02:19:59.166Z,51.291332
2023-01-28T02:20:59.199Z,51.291389
2023-01-28T02:21:59.144Z,51.291389
2023-01-28T02:22:59.125Z,51.291389
2023-01-28T02:23:59.151Z,51.291389
2023-01-28T02:24:59.127Z,51.291389
2023-01-28T02:25:59.120Z,51.291389
2023-01-28T02:26:59.121Z,51.291389
2023-01-28T02:27:59.051Z,51.291389
2023-01-28T02:28:59.049Z,51.291389
2023-01-28T02:29:59.032Z,51.291389
2023-01-28T02:30:59.088Z,51.291389
2023-01-28T02:31:59.042Z,51.291389
2023-01-28T02:32:59.009Z,51.291389
2023-01-28T02:33:59.984Z,51.291389
2023-01-28T02:34:58.979Z,51.291389
2023-01-28T02:35:58.973Z,51.291389
2023-01-28T02:36:58.986Z,51.291389
2023-01-28T02:37:58.939Z,51.291389
2023-01-28T02:38:59.097Z,51.291389
2023-01-28T02:39:58.924Z,51.291389
2023-01-28T02:40:58.913Z,51.291389
2023-01-28T02:41:58.903Z,51.291389
2023-01-28T02:42:58.901Z,51.291389
2023-01-28T02:43:58.882Z,51.291389
2023-01-28T02:44:58.861Z,51.291389
2023-01-28T02:45:58.879Z,51.291389
2023-01-28T02:46:58.841Z,51.291389
2023-01-28T02:47:58.836Z,51.291389
2023-01-28T02:48:58.828Z,51.291389
2023-01-28T02:49:58.797Z,51.291389
2023-01-28T02:50:58.788Z,51.291389
2023-01-28T02:51:58.779Z,51.291389
2023-01-28T02:52:58.779Z,51.291389
2023-01-28T02:53:58.772Z,51.291389
2023-01-28T02:54:58.765Z,51.291389
2023-01-28T02:55:58.735Z,51.291389
2023-01-28T02:56:58.734Z,51.291389
2023-01-28T02:57:58.743Z,51.291389
2023-01-28T02:58:58.697Z,51.291389
2023-01-28T02:59:58.854Z,51.291389
2023-01-28T03:00:58.721Z,51.291389
2023-01-28T03:01:58.673Z,51.291389
2023-01-28T03:02:58.694Z,51.291389
2023-01-28T03:03:58.648Z,51.291389
2023-01-28T03:04:58.623Z,51.291389
2023-01-28T03:05:58.682Z,51.291389
2023-01-28T03:06:58.607Z,51.291389
2023-01-28T03:07:58.600Z,51.291389
2023-01-28T03:08:58.607Z,51.291389
2023-01-28T03:09:58.584Z,51.291389
2023-01-28T03:10:58.553Z,51.291389
2023-01-28T03:11:58.550Z,51.291389
2023-01-28T03:12:59.002Z,51.291389
2023-01-28T03:13:58.540Z,51.291389
2023-01-28T03:14:58.514Z,51.291389
2023-01-28T03:15:58.584Z,51.291389
2023-01-28T03:16:58.493Z,51.291389
2023-01-28T03:17:58.481Z,51.291389
2023-01-28T03:18:58.488Z,51.291389
2023-01-28T03:19:58.451Z,51.291389
2023-01-28T03:20:58.453Z,51.291389
2023-01-28T03:21:58.803Z,51.291389
2023-01-28T03:22:58.433Z,51.291389
2023-01-28T03:23:58.482Z,51.291389
2023-01-28T03:24:58.404Z,51.291389
2023-01-28T03:25:58.404Z,51.291389
2023-01-28T03:26:58.381Z,51.291389
2023-01-28T03:27:58.812Z,51.291389
2023-01-28T03:28:58.410Z,51.291389
2023-01-28T03:29:58.347Z,51.291389
2023-01-28T03:30:58.411Z,51.291389
2023-01-28T03:31:58.333Z,51.291389
2023-01-28T03:32:58.323Z,51.291389
2023-01-28T03:33:58.304Z,51.291389
2023-01-28T03:34:58.305Z,51.291389
2023-01-28T03:35:58.286Z,51.291389
2023-01-28T03:36:58.261Z,51.291389
2023-01-28T03:37:58.259Z,51.291389
2023-01-28T03:38:58.269Z,51.291389
2023-01-28T03:39:58.244Z,51.291389
2023-01-28T03:40:58.219Z,51.291389
2023-01-28T03:41:58.221Z,51.291389
2023-01-28T03:42:58.202Z,51.291389
2023-01-28T03:43:58.187Z,51.291389
2023-01-28T03:44:58.205Z,51.291389
2023-01-28T03:45:58.251Z,51.291389
2023-01-28T03:46:58.163Z,51.291389
2023-01-28T03:47:58.134Z,51.291389
2023-01-28T03:48:58.137Z,51.291389
2023-01-28T03:49:58.172Z,51.291389
2023-01-28T03:50:58.103Z,51.291389
2023-01-28T03:51:58.095Z,51.291389
2023-01-28T03:52:58.096Z,51.291389
2023-01-28T03:53:58.071Z,51.291389
2023-01-28T03:54:58.103Z,51.291389
2023-01-28T03:55:58.044Z,51.291389
2023-01-28T03:56:59.017Z,51.291389
2023-01-28T03:57:58.020Z,51.291389
2023-01-28T03:58:58.003Z,51.291389
2023-01-28T03:59:58.006Z,51.291389
2023-01-28T04:00:58.039Z,51.291389
2023-01-28T04:01:57.990Z,51.291389
2023-01-28T04:02:58.012Z,51.291389
2023-01-28T04:03:57.953Z,51.291389
2023-01-28T04:04:57.938Z,51.291389
2023-01-28T04:05:57.964Z,51.291389
2023-01-28T04:06:57.994Z,51.291389
2023-01-28T04:07:58.676Z,51.291389
2023-01-28T04:08:57.961Z,51.291389
2023-01-28T04:09:57.880Z,51.291389
2023-01-28T04:10:57.896Z,51.291389
2023-01-28T04:11:57.873Z,51.291389
2023-01-28T04:12:57.849Z,51.291389
2023-01-28T04:13:57.828Z,51.291389
2023-01-28T04:14:57.827Z,51.291389
2023-01-28T04:15:57.869Z,51.291389
2023-01-28T04:16:58.533Z,51.291389
2023-01-28T04:17:57.789Z,51.291389
2023-01-28T04:18:57.776Z,51.291389
2023-01-28T04:19:57.776Z,51.291389
2023-01-28T04:20:57.746Z,51.291389
2023-01-28T04:21:57.788Z,51.291389
2023-01-28T04:22:57.740Z,51.291389
2023-01-28T04:23:57.760Z,51.291389
2023-01-28T04:24:57.705Z,51.291389
2023-01-28T04:25:57.704Z,51.291389
2023-01-28T04:26:57.749Z,51.291389
2023-01-28T04:27:57.673Z,51.291389
2023-01-28T04:28:57.664Z,51.291389
2023-01-28T04:29:57.653Z,51.291389
2023-01-28T04:30:57.667Z,51.291389
2023-01-28T04:31:57.822Z,51.291389
2023-01-28T04:32:57.649Z,51.291389
2023-01-28T04:33:57.595Z,51.291389
2023-01-28T04:34:57.574Z,51.291389
2023-01-28T04:35:57.583Z,51.291389
2023-01-28T04:36:57.563Z,51.294594
2023-01-28T04:37:57.559Z,51.292305
2023-01-28T04:38:57.535Z,51.292233
2023-01-28T04:39:57.530Z,51.292538
2023-01-28T04:40:57.510Z,51.291191
2023-01-28T04:41:57.532Z,51.292332
2023-01-28T04:42:57.509Z,51.291656
2023-01-28T04:43:57.460Z,51.291317
2023-01-28T04:44:58.469Z,51.293671
2023-01-28T04:45:57.450Z,51.292122
2023-01-28T04:46:57.474Z,51.291985
2023-01-28T04:47:57.459Z,51.291985
2023-01-28T04:48:57.415Z,51.293812
2023-01-28T04:49:57.406Z,51.293007
2023-01-28T04:50:57.404Z,51.292789
2023-01-28T04:51:57.448Z,51.292789
2023-01-28T04:52:57.402Z,51.292789
2023-01-28T04:53:57.350Z,51.292789
2023-01-28T04:54:57.358Z,51.292789
2023-01-28T04:55:57.338Z,51.292789
2023-01-28T04:56:57.353Z,51.293762
2023-01-28T04:57:57.328Z,51.293400
2023-01-28T04:58:57.312Z,51.293266
2023-01-28T04:59:57.293Z,51.294758
2023-01-28T05:00:57.338Z,51.294758
2023-01-28T05:01:57.334Z,51.292709
2023-01-28T05:02:57.271Z,51.292816
2023-01-28T05:03:57.247Z,51.292816
2023-01-28T05:04:57.230Z,51.292816
2023-01-28T05:05:57.218Z,51.292816
2023-01-28T05:06:57.244Z,51.292816
2023-01-28T05:07:57.225Z,51.292816
2023-01-28T05:08:57.181Z,51.292976
2023-01-28T05:09:57.192Z,51.292976
2023-01-28T05:10:57.161Z,51.292976
2023-01-28T05:11:57.171Z,51.292976
2023-01-28T05:12:57.172Z,51.292976
2023-01-28T05:13:57.124Z,51.292976
2023-01-28T05:14:57.109Z,51.291431
2023-01-28T05:15:57.115Z,51.291431
2023-01-28T05:16:57.088Z,51.291431
2023-01-28T05:17:57.143Z,51.291431
2023-01-28T05:18:57.067Z,51.291431
2023-01-28T05:19:57.061Z,51.291431
2023-01-28T05:20:57.038Z,51.291431
2023-01-28T05:21:57.038Z,51.290646
2023-01-28T05:22:57.042Z,51.291107
2023-01-28T05:23:57.033Z,51.291241
2023-01-28T05:24:56.988Z,51.291397
2023-01-28T05:25:56.985Z,51.291286
2023-01-28T05:26:56.976Z,51.291286
2023-01-28T05:27:56.961Z,51.292046
2023-01-28T05:28:56.960Z,51.292156
2023-01-28T05:29:56.933Z,51.292156
2023-01-28T05:30:56.969Z,51.292156
2023-01-28T05:31:56.919Z,51.292156
2023-01-28T05:32:56.917Z,51.292454
2023-01-28T05:33:56.934Z,51.292553
2023-01-28T05:34:56.877Z,51.292988
2023-01-28T05:35:56.878Z,51.292988
2023-01-28T05:36:56.850Z,51.292988
2023-01-28T05:37:56.849Z,51.291790
2023-01-28T05:38:57.074Z,51.291508
2023-01-28T05:39:56.827Z,51.291176
2023-01-28T05:40:56.867Z,51.291237
2023-01-28T05:41:56.806Z,51.291203
2023-01-28T05:42:56.787Z,51.291180
2023-01-28T05:43:56.793Z,51.291130
2023-01-28T05:44:56.795Z,51.291111
2023-01-28T05:45:56.761Z,51.291241
2023-01-28T05:46:56.744Z,51.291283
2023-01-28T05:47:56.740Z,51.291294
2023-01-28T05:48:56.719Z,51.291218
2023-01-28T05:49:56.747Z,51.291229
2023-01-28T05:50:56.712Z,51.291214
2023-01-28T05:51:56.696Z,51.291187
2023-01-28T05:52:56.675Z,51.291130
2023-01-28T05:53:56.728Z,51.291058
2023-01-28T05:54:56.669Z,51.291073
2023-01-28T05:55:56.672Z,51.291004
2023-01-28T05:56:56.636Z,51.290932
2023-01-28T05:57:56.620Z,51.290939
2023-01-28T05:58:56.644Z,51.291069
2023-01-28T05:59:56.603Z,51.291115
2023-01-28T06:00:56.659Z,51.291206
2023-01-28T06:01:56.578Z,51.291016
2023-01-28T06:02:56.576Z,51.290924
2023-01-28T06:03:56.557Z,51.291008
2023-01-28T06:04:57.619Z,51.291058
2023-01-28T06:05:56.584Z,51.291203
2023-01-28T06:06:56.787Z,51.291050
2023-01-28T06:07:56.501Z,51.291206
2023-01-28T06:08:56.499Z,51.291183
2023-01-28T06:09:56.487Z,51.291279
2023-01-28T06:10:56.482Z,51.291271
2023-01-28T06:11:56.481Z,51.291260
2023-01-28T06:12:56.444Z,51.291374
2023-01-28T06:13:56.426Z,51.291309
2023-01-28T06:14:56.422Z,51.291458
2023-01-28T06:15:56.650Z,51.291252
2023-01-28T06:16:56.440Z,51.291302
2023-01-28T06:17:56.388Z,51.291290
2023-01-28T06:18:56.384Z,51.291313
2023-01-28T06:19:56.365Z,51.291298
2023-01-28T06:20:56.368Z,51.291485
2023-01-28T06:21:56.379Z,51.291313
2023-01-28T06:22:56.330Z,51.291412
2023-01-28T06:23:56.354Z,51.291313
2023-01-28T06:24:56.301Z,51.291241
2023-01-28T06:25:56.296Z,51.291275
2023-01-28T06:26:56.294Z,51.291222
2023-01-28T06:27:56.298Z,51.291290
2023-01-28T06:28:56.257Z,51.291294
2023-01-28T06:29:56.251Z,51.291252
2023-01-28T06:30:56.268Z,51.291191
2023-01-28T06:31:56.242Z,51.291077
2023-01-28T06:32:56.285Z,51.291191
2023-01-28T06:33:56.217Z,51.291241
2023-01-28T06:34:56.198Z,51.291241
2023-01-28T06:35:56.190Z,51.291218
2023-01-28T06:36:56.169Z,51.291210
2023-01-28T06:37:56.203Z,51.291248
2023-01-28T06:38:56.178Z,51.291111
2023-01-28T06:39:56.174Z,51.291218
2023-01-28T06:40:56.260Z,51.291222
2023-01-28T06:41:56.115Z,51.291252
2023-01-28T06:42:56.102Z,51.291191
2023-01-28T06:43:56.111Z,51.291180
2023-01-28T06:44:56.099Z,51.291218
2023-01-28T06:45:56.077Z,51.291237
2023-01-28T06:46:56.054Z,51.291222
2023-01-28T06:47:56.051Z,51.291275
2023-01-28T06:48:56.054Z,51.291237
2023-01-28T06:49:56.045Z,51.291290
2023-01-28T06:50:56.023Z,51.291168
2023-01-28T06:51:55.999Z,51.291195
2023-01-28T06:52:55.983Z,51.291191
2023-01-28T06:53:56.023Z,51.291252
2023-01-28T06:54:55.963Z,51.291233
2023-01-28T06:55:55.957Z,51.291267
2023-01-28T06:56:55.937Z,51.291237
2023-01-28T06:57:55.937Z,51.291180
2023-01-28T06:58:55.915Z,51.291199
2023-01-28T06:59:55.996Z,51.291233
2023-01-28T07:00:55.891Z,51.291164
2023-01-28T07:01:56.507Z,51.291363
2023-01-28T07:02:55.920Z,51.291267
2023-01-28T07:03:55.867Z,51.291122
2023-01-28T07:04:55.877Z,51.291302
2023-01-28T07:05:55.842Z,51.291199
2023-01-28T07:06:55.834Z,51.291153
2023-01-28T07:07:55.821Z,51.291161
2023-01-28T07:08:55.812Z,51.291180
2023-01-28T07:09:55.781Z,51.290951
2023-01-28T07:10:56.339Z,51.290871
2023-01-28T07:11:55.772Z,51.291222
2023-01-28T07:12:55.758Z,51.290894
2023-01-28T07:13:55.737Z,51.291325
2023-01-28T07:14:55.734Z,51.291313
2023-01-28T07:15:55.738Z,51.291065
2023-01-28T07:16:55.735Z,51.291157
2023-01-28T07:17:55.697Z,51.291248
2023-01-28T07:18:55.677Z,51.291225
2023-01-28T07:19:56.693Z,51.291275
2023-01-28T07:20:55.692Z,51.291233
2023-01-28T07:21:55.650Z,51.291294
2023-01-28T07:22:55.653Z,51.291321
2023-01-28T07:23:55.683Z,51.291035
2023-01-28T07:24:55.659Z,51.290989
2023-01-28T07:25:55.639Z,51.291111
2023-01-28T07:26:55.587Z,51.291115
2023-01-28T07:27:55.600Z,51.291248
2023-01-28T07:28:55.572Z,51.291393
2023-01-28T07:29:55.548Z,51.291561
2023-01-28T07:30:55.545Z,51.291561
2023-01-28T07:31:55.638Z,51.291561
2023-01-28T07:32:55.551Z,51.291561
2023-01-28T07:33:55.518Z,51.291561
2023-01-28T07:34:55.498Z,51.291561
2023-01-28T07:35:59.210Z,51.291561
2023-01-28T07:36:57.432Z,51.291561
2023-01-28T07:37:56.485Z,51.291561
2023-01-28T07:38:55.563Z,51.291561
2023-01-28T07:39:55.617Z,51.291561
2023-01-28T07:40:55.596Z,51.291100
2023-01-28T07:41:55.803Z,51.291035
2023-01-28T07:42:55.550Z,51.290985
2023-01-28T07:43:55.548Z,51.291031
2023-01-28T07:44:55.669Z,51.291233
2023-01-28T07:45:55.375Z,51.291248
2023-01-28T07:46:55.402Z,51.291126
2023-01-28T07:47:56.082Z,51.291069
2023-01-28T07:48:56.494Z,51.291271
2023-01-28T07:49:55.321Z,51.291237
2023-01-28T07:50:55.638Z,51.291412
2023-01-28T07:51:56.616Z,51.291412
2023-01-28T07:52:55.975Z,51.291355
2023-01-28T07:53:55.913Z,51.291088
2023-01-28T07:54:55.718Z,51.291142
2023-01-28T07:55:55.522Z,51.290936
2023-01-28T07:56:56.201Z,51.291176
2023-01-28T07:57:56.201Z,51.291306
2023-01-28T07:58:56.316Z,51.291019
2023-01-28T07:59:55.715Z,51.289257
2023-01-28T08:00:55.363Z,51.289257
2023-01-28T08:01:56.187Z,51.289257
2023-01-28T08:02:55.293Z,51.289257
2023-01-28T08:03:55.525Z,51.289257
2023-01-28T08:04:55.733Z,51.289257
2023-01-28T08:05:56.083Z,51.289257
2023-01-28T08:06:55.137Z,51.289257
2023-01-28T08:07:55.163Z,51.289257
2023-01-28T08:08:55.267Z,51.289257
2023-01-28T08:09:55.103Z,51.289257
2023-01-28T08:10:55.082Z,51.289257
2023-01-28T08:11:55.061Z,51.289257
2023-01-28T08:12:55.078Z,51.289257
2023-01-28T08:13:55.075Z,51.289257
2023-01-28T08:14:55.046Z,51.289257
2023-01-28T08:15:55.073Z,51.289257
2023-01-28T08:16:55.005Z,51.289257
2023-01-28T08:17:55.004Z,51.289257
2023-01-28T08:18:55.037Z,51.289257
2023-01-28T08:19:54.984Z,51.289257
2023-01-28T08:20:54.977Z,51.289257
2023-01-28T08:21:55.067Z,51.289257
2023-01-28T08:22:54.943Z,51.289257
2023-01-28T08:23:55.034Z,51.289257
2023-01-28T08:24:54.904Z,51.289257
2023-01-28T08:25:54.905Z,51.289257
2023-01-28T08:26:54.902Z,51.289257
2023-01-28T08:27:54.885Z,51.289257
2023-01-28T08:28:54.871Z,51.289257
2023-01-28T08:29:54.888Z,51.291252
2023-01-28T08:30:54.996Z,51.291279
2023-01-28T08:31:54.827Z,51.291199
2023-01-28T08:32:54.829Z,51.291157
2023-01-28T08:33:54.811Z,51.291195
2023-01-28T08:34:54.823Z,51.291309
2023-01-28T08:35:54.813Z,51.291317
2023-01-28T08:36:54.773Z,51.291180
2023-01-28T08:37:54.808Z,51.291248
2023-01-28T08:38:54.757Z,51.291283
2023-01-28T08:39:54.736Z,51.291443
2023-01-28T08:40:54.750Z,51.291363
2023-01-28T08:41:54.734Z,51.291134
2023-01-28T08:42:54.774Z,51.291096
2023-01-28T08:43:54.695Z,51.291103
2023-01-28T08:44:54.684Z,51.291298
2023-01-28T08:45:54.699Z,51.291264
2023-01-28T08:46:54.656Z,51.291206
2023-01-28T08:47:54.701Z,51.291252
2023-01-28T08:48:54.647Z,51.291168
2023-01-28T08:49:54.613Z,51.291157
2023-01-28T08:50:54.649Z,51.291378
2023-01-28T08:51:54.607Z,51.291512
2023-01-28T08:52:54.594Z,51.291443
2023-01-28T08:53:54.580Z,51.291409
2023-01-28T08:54:54.565Z,51.291233
2023-01-28T08:55:54.542Z,51.291286
2023-01-28T08:56:54.563Z,51.291000
2023-01-28T08:57:55.537Z,51.290962
2023-01-28T08:58:54.523Z,51.290962
2023-01-28T08:59:54.511Z,51.290962
2023-01-28T09:00:54.758Z,51.291061
2023-01-28T09:01:54.561Z,51.291340
2023-01-28T09:02:54.468Z,51.291363
2023-01-28T09:03:54.480Z,51.291283
2023-01-28T09:04:54.431Z,51.291237
2023-01-28T09:05:54.435Z,51.291172
2023-01-28T09:06:54.471Z,51.291115
2023-01-28T09:07:54.413Z,51.291416
2023-01-28T09:08:54.397Z,51.291294
2023-01-28T09:09:54.439Z,51.291328
2023-01-28T09:10:54.377Z,51.291332
2023-01-28T09:11:54.356Z,51.291206
2023-01-28T09:12:54.394Z,51.291611
2023-01-28T09:13:54.356Z,51.291954
2023-01-28T09:14:54.348Z,51.291462
2023-01-28T09:15:54.334Z,51.291370
2023-01-28T09:16:54.309Z,51.291145
2023-01-28T09:17:54.344Z,51.290955
2023-01-28T09:18:54.279Z,51.291088
2023-01-28T09:19:54.277Z,51.291203
2023-01-28T09:20:54.277Z,51.291100
2023-01-28T09:21:54.239Z,51.291405
2023-01-28T09:22:54.248Z,51.291473
2023-01-28T09:23:54.348Z,51.291103
2023-01-28T09:24:54.225Z,51.291355
2023-01-28T09:25:54.212Z,51.291264
2023-01-28T09:26:54.227Z,51.291058
2023-01-28T09:27:54.195Z,51.291054
2023-01-28T09:28:54.227Z,51.290806
2023-01-28T09:29:54.180Z,51.291145
2023-01-28T09:30:54.216Z,51.291416
2023-01-28T09:31:54.167Z,51.291134
2023-01-28T09:32:54.124Z,51.291103
2023-01-28T09:33:54.146Z,51.291275
2023-01-28T09:34:54.106Z,51.291367
2023-01-28T09:35:54.082Z,51.291164
2023-01-28T09:36:54.152Z,51.291153
2023-01-28T09:37:55.056Z,51.291012
2023-01-28T09:38:54.094Z,51.291195
2023-01-28T09:39:54.094Z,51.291298
2023-01-28T09:40:54.207Z,51.291164
2023-01-28T09:41:54.052Z,51.291206
2023-01-28T09:42:54.017Z,51.291229
2023-01-28T09:43:54.700Z,51.291016
2023-01-28T09:44:54.067Z,51.291046
2023-01-28T09:45:54.417Z,51.291111
2023-01-28T09:46:54.168Z,51.291149
2023-01-28T09:47:53.983Z,51.291210
2023-01-28T09:48:53.965Z,51.291290
2023-01-28T09:49:53.928Z,51.291046
2023-01-28T09:50:53.945Z,51.291073
2023-01-28T09:51:53.914Z,51.291042
2023-01-28T09:52:53.913Z,51.290970
2023-01-28T09:53:53.896Z,51.291176
2023-01-28T09:54:53.865Z,51.291191
2023-01-28T09:55:54.292Z,51.291142
2023-01-28T09:56:53.840Z,51.291096
2023-01-28T09:57:53.826Z,51.291122
2023-01-28T09:58:54.821Z,51.291084
2023-01-28T09:59:53.800Z,51.290977
2023-01-28T10:00:53.824Z,51.290924
2023-01-28T10:01:53.793Z,51.291012
2023-01-28T10:02:53.769Z,51.291164
2023-01-28T10:03:53.819Z,51.291359
2023-01-28T10:04:54.123Z,51.291164
2023-01-28T10:05:53.770Z,51.291126
2023-01-28T10:06:53.723Z,51.291096
2023-01-28T10:07:53.717Z,51.291302
2023-01-28T10:08:53.707Z,51.291199
2023-01-28T10:09:53.694Z,51.291130
2023-01-28T10:10:53.726Z,51.291092
2023-01-28T10:11:53.667Z,51.291157
2023-01-28T10:12:53.656Z,51.291191
2023-01-28T10:13:53.664Z,51.291153
2023-01-28T10:14:53.647Z,51.291176
2023-01-28T10:15:54.733Z,51.291161
2023-01-28T10:16:53.612Z,51.291119
2023-01-28T10:18:03.889Z,51.291084
2023-01-28T10:18:53.591Z,51.291088
2023-01-28T10:19:53.579Z,51.290909
2023-01-28T10:20:53.578Z,51.291046
2023-01-28T10:21:53.582Z,51.291008
2023-01-28T10:22:53.550Z,51.291126
2023-01-28T10:23:53.549Z,51.291164
2023-01-28T10:24:53.722Z,51.291180
2023-01-28T10:25:53.561Z,51.291161
2023-01-28T10:26:53.559Z,51.291142
2023-01-28T10:27:53.478Z,51.291172
2023-01-28T10:28:53.502Z,51.291077
2023-01-28T10:29:53.473Z,51.291058
2023-01-28T10:30:53.466Z,51.290970
2023-01-28T10:31:53.658Z,51.290970
2023-01-28T10:32:53.437Z,51.291084
2023-01-28T10:33:53.457Z,51.291069
2023-01-28T10:34:53.430Z,51.291069
2023-01-28T10:35:53.407Z,51.291069
2023-01-28T10:36:53.417Z,51.291069
2023-01-28T10:37:53.386Z,51.291069
2023-01-28T10:38:53.362Z,51.291069
2023-01-28T10:39:56.117Z,51.291069
2023-01-28T10:40:53.349Z,51.291069
2023-01-28T10:41:58.263Z,51.291069
2023-01-28T10:42:54.327Z,51.291069
2023-01-28T10:43:53.882Z,51.291069
2023-01-28T10:44:54.308Z,51.291069
2023-01-28T10:45:53.326Z,51.291069
2023-01-28T10:46:53.323Z,51.291069
2023-01-28T10:47:53.309Z,51.291069
2023-01-28T10:48:53.249Z,51.291069
2023-01-28T10:49:53.239Z,51.291069
2023-01-28T10:50:53.982Z,51.291069
2023-01-28T10:51:53.223Z,51.291069
2023-01-28T10:52:53.219Z,51.291069
2023-01-28T10:53:53.195Z,51.291069
2023-01-28T10:54:54.188Z,51.291069
2023-01-28T10:55:53.169Z,51.291069
2023-01-28T10:56:53.168Z,51.291069
2023-01-28T10:57:53.183Z,51.291069
2023-01-28T10:58:53.131Z,51.291069
2023-01-28T10:59:53.809Z,51.291069
2023-01-28T11:00:53.188Z,51.291069
2023-01-28T11:01:53.149Z,51.291069
2023-01-28T11:02:53.143Z,51.291069
2023-01-28T11:03:53.634Z,51.291069
2023-01-28T11:04:53.086Z,51.291069
2023-01-28T11:05:53.075Z,51.291069
2023-01-28T11:06:53.068Z,51.291225
2023-01-28T11:07:53.033Z,51.291298
2023-01-28T11:08:53.090Z,51.291164
2023-01-28T11:09:53.014Z,51.291100
2023-01-28T11:10:53.007Z,51.290943
2023-01-28T11:11:53.008Z,51.291008
2023-01-28T11:12:52.968Z,51.291561
2023-01-28T11:13:53.009Z,51.291336
2023-01-28T11:14:52.961Z,51.291260
2023-01-28T11:15:52.935Z,51.291252
2023-01-28T11:16:52.932Z,51.291119
2023-01-28T11:17:52.947Z,51.291008
2023-01-28T11:18:52.969Z,51.291107
2023-01-28T11:19:52.915Z,51.291161
2023-01-28T11:20:52.886Z,51.291161
2023-01-28T11:21:52.910Z,51.291214
2023-01-28T11:22:52.874Z,51.291241
2023-01-28T11:23:52.915Z,51.291237
2023-01-28T11:24:52.890Z,51.291325
2023-01-28T11:25:52.820Z,51.291229
2023-01-28T11:26:53.059Z,51.291206
2023-01-28T11:27:53.194Z,51.291206
2023-01-28T11:28:52.820Z,51.291199
2023-01-28T11:29:53.707Z,51.291260
2023-01-28T11:30:53.307Z,51.291286
2023-01-28T11:31:53.472Z,51.291397
2023-01-28T11:33:01.451Z,51.291279
